sensor_id;sensor_type;location;lat;lon;timestamp;pressure;altitude;pressure_sealevel;temperature;humidity
59154;BME280;44935;48.944;9.418;2022-08-04T00:01:28;98483.42;;;22.95;40.31
59154;BME280;44935;48.944;9.418;2022-08-04T00:04:01;98479.60;;;23.04;40.09
59154;BME280;44935;48.944;9.418;2022-08-04T00:06:36;98482.50;;;22.74;40.58
59154;BME280;44935;48.944;9.418;2022-08-04T00:09:11;98481.15;;;22.45;40.79
59154;BME280;44935;48.944;9.418;2022-08-04T00:11:41;98479.64;;;22.43;41.26
59154;BME280;44935;48.944;9.418;2022-08-04T00:14:14;98478.83;;;22.63;40.72
59154;BME280;44935;48.944;9.418;2022-08-04T00:16:42;98477.30;;;22.43;40.69
59154;BME280;44935;48.944;9.418;2022-08-04T00:19:17;98476.17;;;22.37;40.85
59154;BME280;44935;48.944;9.418;2022-08-04T00:21:53;98478.38;;;22.47;40.51
59154;BME280;44935;48.944;9.418;2022-08-04T00:24:22;98476.67;;;22.46;40.74
59154;BME280;44935;48.944;9.418;2022-08-04T00:26:52;98480.76;;;22.28;40.87
59154;BME280;44935;48.944;9.418;2022-08-04T00:29:20;98482.67;;;22.49;40.41
59154;BME280;44935;48.944;9.418;2022-08-04T00:31:47;98483.01;;;22.49;40.51
59154;BME280;44935;48.944;9.418;2022-08-04T00:34:15;98484.84;;;22.39;40.25
59154;BME280;44935;48.944;9.418;2022-08-04T00:36:43;98480.31;;;22.86;39.92
59154;BME280;44935;48.944;9.418;2022-08-04T00:39:12;98483.07;;;22.99;39.25
59154;BME280;44935;48.944;9.418;2022-08-04T00:41:49;98482.19;;;23.24;38.31
59154;BME280;44935;48.944;9.418;2022-08-04T00:44:29;98483.59;;;23.41;38.23
59154;BME280;44935;48.944;9.418;2022-08-04T00:47:12;98481.30;;;21.76;40.62
59154;BME280;44935;48.944;9.418;2022-08-04T00:49:56;98478.93;;;21.21;41.55
59154;BME280;44935;48.944;9.418;2022-08-04T00:52:38;98475.30;;;21.63;40.98
59154;BME280;44935;48.944;9.418;2022-08-04T00:55:23;98476.95;;;23.27;38.69
59154;BME280;44935;48.944;9.418;2022-08-04T00:58:10;98478.61;;;23.62;37.81
59154;BME280;44935;48.944;9.418;2022-08-04T01:00:47;98477.50;;;23.56;38.04
59154;BME280;44935;48.944;9.418;2022-08-04T01:03:26;98479.09;;;23.68;38.39
59154;BME280;44935;48.944;9.418;2022-08-04T01:06:16;98480.44;;;23.45;38.50
59154;BME280;44935;48.944;9.418;2022-08-04T01:08:57;98479.37;;;23.44;38.71
59154;BME280;44935;48.944;9.418;2022-08-04T01:11:36;98479.31;;;22.90;40.01
59154;BME280;44935;48.944;9.418;2022-08-04T01:14:19;98481.29;;;22.51;40.53
59154;BME280;44935;48.944;9.418;2022-08-04T01:16:52;98479.03;;;22.49;40.44
59154;BME280;44935;48.944;9.418;2022-08-04T01:19:40;98479.35;;;22.94;39.66
59154;BME280;44935;48.944;9.418;2022-08-04T01:22:17;98481.90;;;22.88;39.47
59154;BME280;44935;48.944;9.418;2022-08-04T01:25:06;98481.22;;;23.33;38.65
59154;BME280;44935;48.944;9.418;2022-08-04T01:27:50;98478.22;;;23.20;39.10
59154;BME280;44935;48.944;9.418;2022-08-04T01:30:24;98479.45;;;22.90;39.14
59154;BME280;44935;48.944;9.418;2022-08-04T01:32:55;98480.33;;;23.27;39.24
59154;BME280;44935;48.944;9.418;2022-08-04T01:35:28;98480.12;;;23.41;38.43
59154;BME280;44935;48.944;9.418;2022-08-04T01:38:00;98473.18;;;21.62;40.84
59154;BME280;44935;48.944;9.418;2022-08-04T01:40:27;98475.09;;;22.95;39.34
59154;BME280;44935;48.944;9.418;2022-08-04T01:42:58;98469.26;;;22.49;39.87
59154;BME280;44935;48.944;9.418;2022-08-04T01:45:27;98470.21;;;22.56;40.54
59154;BME280;44935;48.944;9.418;2022-08-04T01:47:56;98467.30;;;22.65;40.04
59154;BME280;44935;48.944;9.418;2022-08-04T01:50:23;98465.03;;;22.92;39.11
59154;BME280;44935;48.944;9.418;2022-08-04T01:52:52;98466.40;;;23.34;38.27
59154;BME280;44935;48.944;9.418;2022-08-04T01:55:20;98462.23;;;21.34;41.60
59154;BME280;44935;48.944;9.418;2022-08-04T01:57:49;98465.81;;;23.31;38.37
59154;BME280;44935;48.944;9.418;2022-08-04T02:00:18;98467.59;;;23.55;38.29
59154;BME280;44935;48.944;9.418;2022-08-04T02:02:47;98468.77;;;23.38;38.56
59154;BME280;44935;48.944;9.418;2022-08-04T02:05:17;98465.49;;;23.43;38.35
59154;BME280;44935;48.944;9.418;2022-08-04T02:07:50;98463.94;;;23.49;38.47
59154;BME280;44935;48.944;9.418;2022-08-04T02:10:27;98460.98;;;23.63;38.33
59154;BME280;44935;48.944;9.418;2022-08-04T02:13:05;98459.92;;;23.32;38.39
59154;BME280;44935;48.944;9.418;2022-08-04T02:15:43;98459.63;;;23.09;38.27
59154;BME280;44935;48.944;9.418;2022-08-04T02:18:22;98454.47;;;22.91;38.71
59154;BME280;44935;48.944;9.418;2022-08-04T02:20:56;98452.74;;;23.08;38.81
59154;BME280;44935;48.944;9.418;2022-08-04T02:23:29;98451.07;;;22.50;39.92
59154;BME280;44935;48.944;9.418;2022-08-04T02:25:59;98455.49;;;23.27;38.34
59154;BME280;44935;48.944;9.418;2022-08-04T02:28:32;98454.63;;;23.13;38.49
59154;BME280;44935;48.944;9.418;2022-08-04T02:31:07;98450.28;;;22.17;40.55
59154;BME280;44935;48.944;9.418;2022-08-04T02:33:38;98451.20;;;21.86;41.19
59154;BME280;44935;48.944;9.418;2022-08-04T02:36:10;98445.91;;;21.62;41.26
59154;BME280;44935;48.944;9.418;2022-08-04T02:38:52;98447.59;;;21.34;41.77
59154;BME280;44935;48.944;9.418;2022-08-04T02:41:21;98446.04;;;20.66;43.14
59154;BME280;44935;48.944;9.418;2022-08-04T02:43:49;98449.43;;;21.04;43.13
59154;BME280;44935;48.944;9.418;2022-08-04T02:46:19;98447.90;;;21.25;42.74
59154;BME280;44935;48.944;9.418;2022-08-04T02:48:47;98445.78;;;21.45;42.35
59154;BME280;44935;48.944;9.418;2022-08-04T02:51:18;98445.43;;;21.12;43.03
59154;BME280;44935;48.944;9.418;2022-08-04T02:53:49;98446.38;;;20.80;43.48
59154;BME280;44935;48.944;9.418;2022-08-04T02:56:19;98447.70;;;20.32;44.37
59154;BME280;44935;48.944;9.418;2022-08-04T02:58:52;98444.53;;;20.77;43.88
59154;BME280;44935;48.944;9.418;2022-08-04T03:01:22;98445.00;;;20.49;43.68
59154;BME280;44935;48.944;9.418;2022-08-04T03:04:00;98443.74;;;21.21;42.77
59154;BME280;44935;48.944;9.418;2022-08-04T03:09:23;98444.33;;;21.35;43.25
59154;BME280;44935;48.944;9.418;2022-08-04T03:12:11;98440.86;;;20.97;42.40
59154;BME280;44935;48.944;9.418;2022-08-04T03:15:00;98445.31;;;21.21;42.15
59154;BME280;44935;48.944;9.418;2022-08-04T03:18:06;98445.15;;;21.00;41.90
59154;BME280;44935;48.944;9.418;2022-08-04T03:25:35;98446.93;;;21.95;41.51
59154;BME280;44935;48.944;9.418;2022-08-04T03:29:55;98448.02;;;22.11;40.50
59154;BME280;44935;48.944;9.418;2022-08-04T03:33:05;98450.32;;;21.79;40.68
59154;BME280;44935;48.944;9.418;2022-08-04T03:35:50;98447.15;;;21.91;39.97
59154;BME280;44935;48.944;9.418;2022-08-04T03:38:39;98450.44;;;20.67;41.63
59154;BME280;44935;48.944;9.418;2022-08-04T03:41:30;98448.99;;;22.03;39.98
59154;BME280;44935;48.944;9.418;2022-08-04T03:44:21;98448.85;;;22.15;39.93
59154;BME280;44935;48.944;9.418;2022-08-04T03:47:11;98450.69;;;21.60;40.45
59154;BME280;44935;48.944;9.418;2022-08-04T03:50:10;98454.98;;;21.33;40.65
59154;BME280;44935;48.944;9.418;2022-08-04T03:53:02;98455.15;;;21.27;40.65
59154;BME280;44935;48.944;9.418;2022-08-04T03:55:42;98456.88;;;20.95;41.49
59154;BME280;44935;48.944;9.418;2022-08-04T03:58:32;98461.71;;;20.83;41.64
59154;BME280;44935;48.944;9.418;2022-08-04T04:01:11;98458.79;;;21.07;41.78
59154;BME280;44935;48.944;9.418;2022-08-04T04:03:58;98458.57;;;21.18;41.58
59154;BME280;44935;48.944;9.418;2022-08-04T04:06:46;98457.74;;;21.22;41.08
59154;BME280;44935;48.944;9.418;2022-08-04T04:09:35;98455.04;;;21.32;40.71
59154;BME280;44935;48.944;9.418;2022-08-04T04:12:20;98452.70;;;21.66;39.76
59154;BME280;44935;48.944;9.418;2022-08-04T04:15:07;98454.29;;;21.81;39.35
59154;BME280;44935;48.944;9.418;2022-08-04T04:17:51;98453.60;;;20.90;40.88
59154;BME280;44935;48.944;9.418;2022-08-04T04:20:32;98454.12;;;21.88;39.32
59154;BME280;44935;48.944;9.418;2022-08-04T04:23:19;98456.53;;;22.18;38.94
59154;BME280;44935;48.944;9.418;2022-08-04T04:26:03;98456.44;;;22.09;39.56
59154;BME280;44935;48.944;9.418;2022-08-04T04:28:48;98455.69;;;21.78;39.93
59154;BME280;44935;48.944;9.418;2022-08-04T04:31:32;98455.66;;;21.27;40.89
59154;BME280;44935;48.944;9.418;2022-08-04T04:34:08;98453.75;;;21.46;40.85
59154;BME280;44935;48.944;9.418;2022-08-04T04:36:49;98451.49;;;21.19;41.32
59154;BME280;44935;48.944;9.418;2022-08-04T04:39:29;98453.64;;;21.16;41.34
59154;BME280;44935;48.944;9.418;2022-08-04T04:42:11;98453.78;;;21.12;41.61
59154;BME280;44935;48.944;9.418;2022-08-04T04:45:02;98455.87;;;20.86;42.11
59154;BME280;44935;48.944;9.418;2022-08-04T04:47:39;98460.13;;;20.71;42.69
59154;BME280;44935;48.944;9.418;2022-08-04T04:50:13;98462.76;;;20.49;43.08
59154;BME280;44935;48.944;9.418;2022-08-04T04:52:48;98464.26;;;20.38;42.85
59154;BME280;44935;48.944;9.418;2022-08-04T04:55:23;98465.61;;;20.99;42.91
59154;BME280;44935;48.944;9.418;2022-08-04T04:57:55;98465.34;;;20.58;42.68
59154;BME280;44935;48.944;9.418;2022-08-04T05:00:29;98464.37;;;21.19;42.18
59154;BME280;44935;48.944;9.418;2022-08-04T05:03:22;98463.51;;;21.21;42.24
59154;BME280;44935;48.944;9.418;2022-08-04T05:06:09;98465.13;;;21.20;42.16
59154;BME280;44935;48.944;9.418;2022-08-04T05:09:02;98465.30;;;21.02;42.44
59154;BME280;44935;48.944;9.418;2022-08-04T05:11:54;98466.46;;;21.15;42.95
59154;BME280;44935;48.944;9.418;2022-08-04T05:14:29;98467.93;;;21.00;42.22
59154;BME280;44935;48.944;9.418;2022-08-04T05:17:03;98472.77;;;21.82;41.16
59154;BME280;44935;48.944;9.418;2022-08-04T05:19:44;98474.03;;;21.63;41.15
59154;BME280;44935;48.944;9.418;2022-08-04T05:22:21;98471.94;;;22.06;40.59
59154;BME280;44935;48.944;9.418;2022-08-04T05:24:58;98470.79;;;22.16;40.49
59154;BME280;44935;48.944;9.418;2022-08-04T05:27:31;98471.14;;;22.05;40.70
59154;BME280;44935;48.944;9.418;2022-08-04T05:30:03;98475.49;;;22.13;41.06
59154;BME280;44935;48.944;9.418;2022-08-04T05:32:37;98472.29;;;21.85;40.75
59154;BME280;44935;48.944;9.418;2022-08-04T05:35:09;98474.76;;;22.06;40.67
59154;BME280;44935;48.944;9.418;2022-08-04T05:37:39;98472.72;;;22.52;40.17
59154;BME280;44935;48.944;9.418;2022-08-04T05:40:09;98473.23;;;22.65;39.74
59154;BME280;44935;48.944;9.418;2022-08-04T05:42:38;98467.63;;;22.78;39.14
59154;BME280;44935;48.944;9.418;2022-08-04T05:45:08;98468.24;;;23.20;38.48
59154;BME280;44935;48.944;9.418;2022-08-04T05:47:36;98466.93;;;23.36;38.02
59154;BME280;44935;48.944;9.418;2022-08-04T05:50:05;98467.62;;;23.65;37.30
59154;BME280;44935;48.944;9.418;2022-08-04T05:52:34;98471.07;;;23.81;36.84
59154;BME280;44935;48.944;9.418;2022-08-04T05:55:02;98469.65;;;23.88;36.20
59154;BME280;44935;48.944;9.418;2022-08-04T05:57:30;98467.12;;;24.48;35.73
59154;BME280;44935;48.944;9.418;2022-08-04T06:00:02;98470.56;;;24.67;35.22
59154;BME280;44935;48.944;9.418;2022-08-04T06:02:30;98474.67;;;23.95;36.55
59154;BME280;44935;48.944;9.418;2022-08-04T06:04:59;98472.11;;;24.27;35.80
59154;BME280;44935;48.944;9.418;2022-08-04T06:07:27;98471.95;;;24.99;35.26
59154;BME280;44935;48.944;9.418;2022-08-04T06:09:55;98467.79;;;25.00;34.92
59154;BME280;44935;48.944;9.418;2022-08-04T06:12:25;98463.78;;;25.19;34.84
59154;BME280;44935;48.944;9.418;2022-08-04T06:14:56;98465.15;;;25.00;34.69
59154;BME280;44935;48.944;9.418;2022-08-04T06:17:32;98465.79;;;25.40;34.38
59154;BME280;44935;48.944;9.418;2022-08-04T06:20:00;98466.80;;;25.32;34.11
59154;BME280;44935;48.944;9.418;2022-08-04T06:22:29;98464.83;;;25.77;33.55
59154;BME280;44935;48.944;9.418;2022-08-04T06:25:00;98466.98;;;25.75;34.13
59154;BME280;44935;48.944;9.418;2022-08-04T06:27:29;98466.74;;;25.69;33.99
59154;BME280;44935;48.944;9.418;2022-08-04T06:29:58;98468.67;;;25.53;33.85
59154;BME280;44935;48.944;9.418;2022-08-04T06:32:28;98469.65;;;26.18;33.59
59154;BME280;44935;48.944;9.418;2022-08-04T06:34:58;98470.99;;;26.38;32.85
59154;BME280;44935;48.944;9.418;2022-08-04T06:37:28;98471.86;;;25.17;34.17
59154;BME280;44935;48.944;9.418;2022-08-04T06:39:56;98470.98;;;25.39;33.91
59154;BME280;44935;48.944;9.418;2022-08-04T06:42:25;98472.08;;;26.32;32.88
59154;BME280;44935;48.944;9.418;2022-08-04T06:44:56;98472.34;;;25.98;33.02
59154;BME280;44935;48.944;9.418;2022-08-04T06:47:25;98473.31;;;26.23;33.06
59154;BME280;44935;48.944;9.418;2022-08-04T06:49:54;98474.11;;;26.47;33.32
59154;BME280;44935;48.944;9.418;2022-08-04T06:52:22;98474.25;;;26.25;33.09
59154;BME280;44935;48.944;9.418;2022-08-04T06:54:51;98472.09;;;26.66;32.44
59154;BME280;44935;48.944;9.418;2022-08-04T06:57:29;98470.92;;;26.52;32.57
59154;BME280;44935;48.944;9.418;2022-08-04T07:00:00;98471.46;;;26.64;32.49
59154;BME280;44935;48.944;9.418;2022-08-04T07:02:30;98473.94;;;27.43;31.90
59154;BME280;44935;48.944;9.418;2022-08-04T07:04:59;98471.98;;;26.38;32.52
59154;BME280;44935;48.944;9.418;2022-08-04T07:07:26;98474.83;;;26.89;32.41
59154;BME280;44935;48.944;9.418;2022-08-04T07:09:54;98473.31;;;26.69;32.25
59154;BME280;44935;48.944;9.418;2022-08-04T07:12:24;98468.64;;;27.18;31.26
59154;BME280;44935;48.944;9.418;2022-08-04T07:14:51;98468.76;;;27.34;31.25
59154;BME280;44935;48.944;9.418;2022-08-04T07:17:20;98471.39;;;27.77;30.83
59154;BME280;44935;48.944;9.418;2022-08-04T07:19:47;98471.18;;;27.63;30.61
59154;BME280;44935;48.944;9.418;2022-08-04T07:22:14;98468.93;;;27.41;30.58
59154;BME280;44935;48.944;9.418;2022-08-04T07:24:42;98466.30;;;27.48;30.39
59154;BME280;44935;48.944;9.418;2022-08-04T07:27:09;98468.52;;;27.96;29.72
59154;BME280;44935;48.944;9.418;2022-08-04T07:29:37;98467.18;;;27.84;29.30
59154;BME280;44935;48.944;9.418;2022-08-04T07:32:06;98465.56;;;27.65;29.93
59154;BME280;44935;48.944;9.418;2022-08-04T07:34:33;98468.43;;;28.31;28.82
59154;BME280;44935;48.944;9.418;2022-08-04T07:37:01;98472.71;;;28.78;28.25
59154;BME280;44935;48.944;9.418;2022-08-04T07:39:29;98473.23;;;28.50;28.26
59154;BME280;44935;48.944;9.418;2022-08-04T07:41:59;98471.04;;;26.77;30.43
59154;BME280;44935;48.944;9.418;2022-08-04T07:44:27;98472.54;;;25.94;31.98
59154;BME280;44935;48.944;9.418;2022-08-04T07:46:55;98467.16;;;26.45;31.06
59154;BME280;44935;48.944;9.418;2022-08-04T07:49:22;98466.13;;;27.36;29.98
59154;BME280;44935;48.944;9.418;2022-08-04T07:51:49;98461.83;;;27.25;30.02
59154;BME280;44935;48.944;9.418;2022-08-04T07:54:17;98463.57;;;28.31;28.51
59154;BME280;44935;48.944;9.418;2022-08-04T07:56:45;98461.12;;;28.25;28.87
59154;BME280;44935;48.944;9.418;2022-08-04T07:59:13;98460.68;;;28.96;28.30
59154;BME280;44935;48.944;9.418;2022-08-04T08:01:41;98456.69;;;28.61;28.09
59154;BME280;44935;48.944;9.418;2022-08-04T08:04:10;98453.89;;;28.74;28.39
59154;BME280;44935;48.944;9.418;2022-08-04T08:06:38;98454.88;;;29.07;27.64
59154;BME280;44935;48.944;9.418;2022-08-04T08:09:08;98451.18;;;28.21;28.28
59154;BME280;44935;48.944;9.418;2022-08-04T08:11:36;98453.50;;;28.77;27.51
59154;BME280;44935;48.944;9.418;2022-08-04T08:14:04;98452.40;;;29.39;26.66
59154;BME280;44935;48.944;9.418;2022-08-04T08:16:32;98447.91;;;29.83;25.63
59154;BME280;44935;48.944;9.418;2022-08-04T08:18:59;98448.57;;;28.94;27.00
59154;BME280;44935;48.944;9.418;2022-08-04T08:21:26;98446.85;;;28.97;26.53
59154;BME280;44935;48.944;9.418;2022-08-04T08:23:53;98444.23;;;30.40;25.01
59154;BME280;44935;48.944;9.418;2022-08-04T08:26:21;98443.76;;;30.64;25.03
59154;BME280;44935;48.944;9.418;2022-08-04T08:28:48;98441.21;;;30.40;25.37
59154;BME280;44935;48.944;9.418;2022-08-04T08:31:15;98442.18;;;29.54;25.83
59154;BME280;44935;48.944;9.418;2022-08-04T08:33:42;98440.14;;;29.12;26.30
59154;BME280;44935;48.944;9.418;2022-08-04T08:36:14;98439.24;;;29.35;25.62
59154;BME280;44935;48.944;9.418;2022-08-04T08:38:48;98437.33;;;29.65;25.86
59154;BME280;44935;48.944;9.418;2022-08-04T08:41:39;98439.04;;;30.22;25.24
59154;BME280;44935;48.944;9.418;2022-08-04T08:44:29;98434.15;;;29.18;25.81
59154;BME280;44935;48.944;9.418;2022-08-04T08:47:07;98436.22;;;29.57;26.00
59154;BME280;44935;48.944;9.418;2022-08-04T08:50:02;98440.63;;;29.72;25.12
59154;BME280;44935;48.944;9.418;2022-08-04T08:52:48;98443.94;;;30.93;24.41
59154;BME280;44935;48.944;9.418;2022-08-04T08:55:28;98443.31;;;30.62;24.37
59154;BME280;44935;48.944;9.418;2022-08-04T08:58:09;98444.38;;;30.39;24.67
59154;BME280;44935;48.944;9.418;2022-08-04T09:00:50;98440.53;;;31.75;23.69
59154;BME280;44935;48.944;9.418;2022-08-04T09:03:37;98439.30;;;31.62;24.12
59154;BME280;44935;48.944;9.418;2022-08-04T09:06:53;98441.26;;;31.29;23.97
59154;BME280;44935;48.944;9.418;2022-08-04T09:09:38;98442.77;;;31.44;23.65
59154;BME280;44935;48.944;9.418;2022-08-04T09:12:13;98441.98;;;32.07;22.62
59154;BME280;44935;48.944;9.418;2022-08-04T09:14:47;98440.29;;;29.82;24.39
59154;BME280;44935;48.944;9.418;2022-08-04T09:17:22;98439.16;;;30.07;24.47
59154;BME280;44935;48.944;9.418;2022-08-04T09:19:56;98435.99;;;30.20;24.41
59154;BME280;44935;48.944;9.418;2022-08-04T09:22:32;98434.08;;;30.99;24.02
59154;BME280;44935;48.944;9.418;2022-08-04T09:25:07;98433.88;;;31.86;22.85
59154;BME280;44935;48.944;9.418;2022-08-04T09:27:45;98437.49;;;32.58;22.33
59154;BME280;44935;48.944;9.418;2022-08-04T09:30:16;98434.84;;;31.72;22.75
59154;BME280;44935;48.944;9.418;2022-08-04T09:32:52;98437.16;;;32.54;22.03
59154;BME280;44935;48.944;9.418;2022-08-04T09:35:25;98439.49;;;32.22;22.05
59154;BME280;44935;48.944;9.418;2022-08-04T09:38:08;98441.09;;;32.56;21.57
59154;BME280;44935;48.944;9.418;2022-08-04T09:40:43;98434.25;;;31.92;21.84
59154;BME280;44935;48.944;9.418;2022-08-04T09:43:22;98433.07;;;32.55;21.85
59154;BME280;44935;48.944;9.418;2022-08-04T09:46:00;98425.38;;;31.30;22.70
59154;BME280;44935;48.944;9.418;2022-08-04T09:48:36;98427.65;;;31.45;22.36
59154;BME280;44935;48.944;9.418;2022-08-04T09:51:13;98424.25;;;32.38;22.26
59154;BME280;44935;48.944;9.418;2022-08-04T09:53:54;98424.68;;;32.10;22.13
59154;BME280;44935;48.944;9.418;2022-08-04T09:56:27;98421.76;;;31.21;22.61
59154;BME280;44935;48.944;9.418;2022-08-04T09:59:05;98424.06;;;32.73;21.83
59154;BME280;44935;48.944;9.418;2022-08-04T10:01:37;98421.63;;;32.87;22.00
59154;BME280;44935;48.944;9.418;2022-08-04T10:04:08;98421.11;;;33.19;21.32
59154;BME280;44935;48.944;9.418;2022-08-04T10:06:46;98417.74;;;33.39;20.67
59154;BME280;44935;48.944;9.418;2022-08-04T10:09:42;98415.24;;;33.71;20.72
59154;BME280;44935;48.944;9.418;2022-08-04T10:12:28;98408.44;;;33.44;21.16
59154;BME280;44935;48.944;9.418;2022-08-04T10:15:08;98408.10;;;33.18;21.21
59154;BME280;44935;48.944;9.418;2022-08-04T10:17:44;98405.74;;;33.45;20.95
59154;BME280;44935;48.944;9.418;2022-08-04T10:20:22;98404.36;;;33.17;20.62
59154;BME280;44935;48.944;9.418;2022-08-04T10:23:00;98401.88;;;33.19;21.74
59154;BME280;44935;48.944;9.418;2022-08-04T10:25:40;98398.12;;;33.07;20.96
59154;BME280;44935;48.944;9.418;2022-08-04T10:28:12;98397.88;;;33.17;21.41
59154;BME280;44935;48.944;9.418;2022-08-04T10:30:46;98397.68;;;32.95;21.47
59154;BME280;44935;48.944;9.418;2022-08-04T10:33:22;98396.77;;;32.73;21.09
59154;BME280;44935;48.944;9.418;2022-08-04T10:35:54;98394.02;;;33.29;20.16
59154;BME280;44935;48.944;9.418;2022-08-04T10:38:29;98394.94;;;33.67;20.56
59154;BME280;44935;48.944;9.418;2022-08-04T10:41:01;98385.24;;;33.89;19.96
59154;BME280;44935;48.944;9.418;2022-08-04T10:43:41;98390.09;;;34.38;19.80
59154;BME280;44935;48.944;9.418;2022-08-04T10:46:16;98383.79;;;33.97;20.04
59154;BME280;44935;48.944;9.418;2022-08-04T10:48:50;98387.75;;;34.08;19.54
59154;BME280;44935;48.944;9.418;2022-08-04T10:51:26;98387.84;;;33.37;20.20
59154;BME280;44935;48.944;9.418;2022-08-04T10:53:57;98384.33;;;33.44;19.65
59154;BME280;44935;48.944;9.418;2022-08-04T10:56:32;98386.97;;;33.07;20.51
59154;BME280;44935;48.944;9.418;2022-08-04T10:59:05;98386.54;;;33.15;20.26
59154;BME280;44935;48.944;9.418;2022-08-04T11:01:37;98381.81;;;31.64;22.14
59154;BME280;44935;48.944;9.418;2022-08-04T11:04:11;98381.02;;;32.16;21.39
59154;BME280;44935;48.944;9.418;2022-08-04T11:06:43;98381.22;;;33.21;20.91
59154;BME280;44935;48.944;9.418;2022-08-04T11:09:11;98376.16;;;33.75;20.68
59154;BME280;44935;48.944;9.418;2022-08-04T11:11:42;98377.50;;;34.26;19.47
59154;BME280;44935;48.944;9.418;2022-08-04T11:14:12;98373.94;;;33.73;19.30
59154;BME280;44935;48.944;9.418;2022-08-04T11:16:43;98372.55;;;34.55;18.69
59154;BME280;44935;48.944;9.418;2022-08-04T11:19:20;98375.30;;;34.48;18.73
59154;BME280;44935;48.944;9.418;2022-08-04T11:21:55;98374.85;;;34.16;19.07
59154;BME280;44935;48.944;9.418;2022-08-04T11:24:29;98375.80;;;35.05;18.61
59154;BME280;44935;48.944;9.418;2022-08-04T11:27:04;98380.34;;;35.32;18.11
59154;BME280;44935;48.944;9.418;2022-08-04T11:29:40;98378.14;;;35.25;18.24
59154;BME280;44935;48.944;9.418;2022-08-04T11:32:16;98377.71;;;35.66;17.76
59154;BME280;44935;48.944;9.418;2022-08-04T11:34:49;98377.90;;;34.75;17.95
59154;BME280;44935;48.944;9.418;2022-08-04T11:37:21;98375.17;;;34.63;18.37
59154;BME280;44935;48.944;9.418;2022-08-04T11:39:52;98373.15;;;34.56;18.47
59154;BME280;44935;48.944;9.418;2022-08-04T11:42:26;98373.16;;;35.27;17.40
59154;BME280;44935;48.944;9.418;2022-08-04T11:44:59;98374.61;;;35.59;17.39
59154;BME280;44935;48.944;9.418;2022-08-04T11:47:28;98370.28;;;35.34;17.11
59154;BME280;44935;48.944;9.418;2022-08-04T11:50:03;98369.34;;;33.73;18.93
59154;BME280;44935;48.944;9.418;2022-08-04T11:52:32;98366.94;;;33.84;19.25
59154;BME280;44935;48.944;9.418;2022-08-04T11:55:03;98368.10;;;34.41;18.58
59154;BME280;44935;48.944;9.418;2022-08-04T11:57:31;98365.39;;;34.35;18.29
59154;BME280;44935;48.944;9.418;2022-08-04T11:59:58;98359.54;;;34.08;18.53
59154;BME280;44935;48.944;9.418;2022-08-04T12:03:33;98355.41;;;33.45;18.97
59154;BME280;44935;48.944;9.418;2022-08-04T12:06:12;98350.21;;;33.58;18.66
59154;BME280;44935;48.944;9.418;2022-08-04T12:08:55;98351.54;;;35.05;17.36
59154;BME280;44935;48.944;9.418;2022-08-04T12:11:31;98351.09;;;34.13;17.85
59154;BME280;44935;48.944;9.418;2022-08-04T12:14:17;98353.05;;;35.08;17.14
59154;BME280;44935;48.944;9.418;2022-08-04T12:16:54;98353.52;;;35.16;16.67
59154;BME280;44935;48.944;9.418;2022-08-04T12:19:29;98352.03;;;34.87;17.30
59154;BME280;44935;48.944;9.418;2022-08-04T12:22:00;98351.51;;;34.05;17.96
59154;BME280;44935;48.944;9.418;2022-08-04T12:24:33;98355.35;;;34.55;17.48
59154;BME280;44935;48.944;9.418;2022-08-04T12:27:07;98355.34;;;35.06;17.21
59154;BME280;44935;48.944;9.418;2022-08-04T12:29:39;98354.15;;;34.88;17.13
59154;BME280;44935;48.944;9.418;2022-08-04T12:32:16;98353.69;;;34.24;17.77
59154;BME280;44935;48.944;9.418;2022-08-04T12:34:48;98351.45;;;34.18;17.86
59154;BME280;44935;48.944;9.418;2022-08-04T12:37:27;98346.89;;;32.84;18.71
59154;BME280;44935;48.944;9.418;2022-08-04T12:40:00;98341.83;;;34.09;18.17
59154;BME280;44935;48.944;9.418;2022-08-04T12:42:35;98342.67;;;35.04;17.40
59154;BME280;44935;48.944;9.418;2022-08-04T12:45:08;98342.59;;;35.83;16.83
59154;BME280;44935;48.944;9.418;2022-08-04T12:47:36;98338.87;;;36.44;16.30
59154;BME280;44935;48.944;9.418;2022-08-04T12:50:07;98338.87;;;34.91;17.53
59154;BME280;44935;48.944;9.418;2022-08-04T12:52:42;98340.27;;;35.23;17.15
59154;BME280;44935;48.944;9.418;2022-08-04T12:55:09;98342.32;;;35.12;17.60
59154;BME280;44935;48.944;9.418;2022-08-04T12:57:38;98341.85;;;34.43;17.24
59154;BME280;44935;48.944;9.418;2022-08-04T13:00:07;98335.68;;;33.40;18.44
59154;BME280;44935;48.944;9.418;2022-08-04T13:02:38;98336.33;;;34.68;17.46
59154;BME280;44935;48.944;9.418;2022-08-04T13:05:08;98334.35;;;34.71;18.19
59154;BME280;44935;48.944;9.418;2022-08-04T13:07:40;98332.01;;;34.80;17.70
59154;BME280;44935;48.944;9.418;2022-08-04T13:10:12;98327.09;;;32.73;19.23
59154;BME280;44935;48.944;9.418;2022-08-04T13:12:40;98322.30;;;34.28;17.99
59154;BME280;44935;48.944;9.418;2022-08-04T13:15:11;98325.54;;;33.23;19.35
59154;BME280;44935;48.944;9.418;2022-08-04T13:17:44;98315.05;;;33.65;18.79
59154;BME280;44935;48.944;9.418;2022-08-04T13:20:12;98314.90;;;33.53;18.79
59154;BME280;44935;48.944;9.418;2022-08-04T13:22:40;98314.29;;;33.80;18.46
59154;BME280;44935;48.944;9.418;2022-08-04T13:25:09;98309.95;;;35.00;17.69
59154;BME280;44935;48.944;9.418;2022-08-04T13:27:37;98305.44;;;35.53;17.85
59154;BME280;44935;48.944;9.418;2022-08-04T13:30:06;98303.32;;;35.82;16.95
59154;BME280;44935;48.944;9.418;2022-08-04T13:32:34;98306.92;;;35.06;17.92
59154;BME280;44935;48.944;9.418;2022-08-04T13:35:01;98305.34;;;35.79;17.52
59154;BME280;44935;48.944;9.418;2022-08-04T13:37:33;98306.40;;;34.89;18.11
59154;BME280;44935;48.944;9.418;2022-08-04T13:40:02;98302.87;;;34.65;17.73
59154;BME280;44935;48.944;9.418;2022-08-04T13:42:32;98298.59;;;35.32;17.94
59154;BME280;44935;48.944;9.418;2022-08-04T13:45:00;98297.18;;;34.43;17.98
59154;BME280;44935;48.944;9.418;2022-08-04T13:47:30;98291.42;;;35.11;17.99
59154;BME280;44935;48.944;9.418;2022-08-04T13:50:09;98288.26;;;35.78;17.40